Time;durP1;ratioP1;P1;durP2;ratioP2;P2;SDS_P1;SDS_P2;PMS_P1;PMS_P2;Temp;Humidity;BMP_temperature;BMP_pressure;BME280_temperature;BME280_humidity;BME280_pressure;Samples;Min_cycle;Max_cycle;Signal;HPM_P1;HPM_P2
2022/04/29 00:00:51;;;;;;;4.10;3.70;;;13.80;51.40;;;;;;5091191;28;20059;-76
2022/04/29 00:03:17;;;;;;;7.75;4.35;;;13.70;51.60;;;;;;5091815;28;20066;-79
2022/04/29 00:05:44;;;;;;;6.32;3.83;;;13.60;51.80;;;;;;5092182;28;20028;-79
2022/04/29 00:08:11;;;;;;;9.23;4.18;;;13.60;52.10;;;;;;5091175;28;20025;-78
2022/04/29 00:10:38;;;;;;;6.65;4.15;;;13.50;52.40;;;;;;5091666;28;20032;-78
2022/04/29 00:13:05;;;;;;;4.50;3.67;;;13.40;52.50;;;;;;5091175;28;20027;-77
2022/04/29 00:15:31;;;;;;;5.50;3.67;;;13.40;52.80;;;;;;5091640;28;20050;-78
2022/04/29 00:17:57;;;;;;;5.72;3.67;;;13.30;52.90;;;;;;5091057;28;20032;-78
2022/04/29 00:20:23;;;;;;;6.97;3.72;;;13.30;53.10;;;;;;5091560;28;20028;-78
2022/04/29 00:22:49;;;;;;;7.70;4.10;;;13.30;53.00;;;;;;5091035;28;20059;-77
2022/04/29 00:25:14;;;;;;;9.25;3.85;;;13.30;53.20;;;;;;5091619;28;20353;-79
2022/04/29 00:27:40;;;;;;;7.13;3.70;;;13.20;53.20;;;;;;5091279;28;20380;-78
2022/04/29 00:30:09;;;;;;;7.50;3.75;;;13.10;53.50;;;;;;5092633;28;20479;-78
2022/04/29 00:32:35;;;;;;;7.40;3.30;;;13.10;53.70;;;;;;5095449;28;20028;-78
2022/04/29 00:35:01;;;;;;;6.65;3.72;;;13.10;53.70;;;;;;5094461;28;20024;-79
2022/04/29 00:37:26;;;;;;;6.15;3.97;;;13.00;53.70;;;;;;5095391;28;20503;-78
2022/04/29 00:39:52;;;;;;;5.68;3.60;;;13.00;53.90;;;;;;5094027;28;20469;-78
2022/04/29 00:42:23;;;;;;;6.75;4.32;;;13.00;54.10;;;;;;5095976;28;20461;-79
2022/04/29 00:44:49;;;;;;;6.80;4.00;;;12.90;54.30;;;;;;5094792;28;20119;-75
2022/04/29 00:47:19;;;;;;;6.47;3.95;;;12.90;54.50;;;;;;5094913;28;20458;-79
2022/04/29 00:49:47;;;;;;;6.07;3.65;;;12.80;54.50;;;;;;5094910;28;20138;-78
2022/04/29 00:52:19;;;;;;;5.78;3.85;;;12.70;54.80;;;;;;5094610;28;20027;-78
2022/04/29 00:54:55;;;;;;;5.32;3.70;;;12.70;55.00;;;;;;5095269;28;20028;-79
2022/04/29 00:57:37;;;;;;;5.00;3.55;;;12.70;55.30;;;;;;5094753;28;20081;-78
2022/04/29 01:00:08;;;;;;;5.57;3.70;;;12.60;55.60;;;;;;5093978;28;20056;-77
2022/04/29 01:02:37;;;;;;;;;;;12.50;56.00;;;;;;5095318;28;20024;-78
2022/04/29 01:05:06;;;;;;;8.65;4.00;;;12.50;56.50;;;;;;5094087;28;20426;-78
2022/04/29 01:07:37;;;;;;;7.93;3.60;;;12.40;56.80;;;;;;5094640;28;20031;-79
2022/04/29 01:10:22;;;;;;;5.45;3.70;;;12.30;57.10;;;;;;5094070;28;20089;-78
2022/04/29 01:13:09;;;;;;;7.72;4.18;;;12.20;57.40;;;;;;5094661;28;20358;-78
2022/04/29 01:15:35;;;;;;;6.55;4.10;;;12.20;57.50;;;;;;5093620;28;20415;-78
2022/04/29 01:18:06;;;;;;;5.78;3.80;;;12.10;57.80;;;;;;5093803;28;20028;-78
2022/04/29 01:20:33;;;;;;;7.03;3.58;;;12.10;58.20;;;;;;5094255;28;20433;-78
2022/04/29 01:23:03;;;;;;;7.93;3.63;;;12.00;58.30;;;;;;5093580;28;20036;-77
2022/04/29 01:25:29;;;;;;;5.57;3.72;;;12.00;58.40;;;;;;5094004;28;20115;-78
2022/04/29 01:27:55;;;;;;;6.55;3.92;;;11.90;58.70;;;;;;5093794;28;20064;-77
2022/04/29 01:30:20;;;;;;;5.68;3.25;;;11.90;58.90;;;;;;5094262;28;20036;-78
2022/04/29 01:32:46;;;;;;;5.47;3.80;;;11.80;58.90;;;;;;5093924;28;20020;-78
2022/04/29 01:35:14;;;;;;;4.80;3.50;;;11.80;59.20;;;;;;5093369;28;20232;-77
2022/04/29 01:37:40;;;;;;;6.78;3.47;;;11.70;59.20;;;;;;5093832;28;20051;-78
2022/04/29 01:40:07;;;;;;;6.13;3.72;;;11.60;59.50;;;;;;5092994;28;20080;-77
2022/04/29 01:42:33;;;;;;;6.95;3.60;;;11.60;59.70;;;;;;5093823;28;20036;-77
2022/04/29 01:44:59;;;;;;;10.52;3.88;;;11.50;59.90;;;;;;5092949;28;20442;-77
2022/04/29 01:47:24;;;;;;;8.40;3.83;;;11.50;60.20;;;;;;5109603;28;20024;-76
2022/04/29 01:49:50;;;;;;;6.85;4.07;;;11.50;60.40;;;;;;5093744;28;20039;-77
2022/04/29 01:52:16;;;;;;;7.63;4.05;;;11.40;60.40;;;;;;5093076;28;20379;-77
2022/04/29 01:54:42;;;;;;;8.20;4.18;;;11.40;60.50;;;;;;5093608;28;20081;-77
2022/04/29 01:57:08;;;;;;;5.75;3.67;;;11.40;60.60;;;;;;5092674;28;20386;-77
2022/04/29 01:59:35;;;;;;;7.13;3.97;;;11.40;60.90;;;;;;5093488;28;20097;-77
2022/04/29 02:02:02;;;;;;;10.70;4.28;;;11.30;61.10;;;;;;5092449;28;20392;-77
2022/04/29 02:04:29;;;;;;;9.15;3.90;;;11.30;61.10;;;;;;5093621;28;20020;-77
2022/04/29 02:06:55;;;;;;;9.65;4.10;;;11.30;61.30;;;;;;5093067;28;20529;-73
2022/04/29 02:09:20;;;;;;;7.90;3.97;;;11.20;61.30;;;;;;5092372;28;20032;-76
2022/04/29 02:12:04;;;;;;;6.53;3.80;;;11.20;61.60;;;;;;5093305;28;20031;-77
2022/04/29 02:14:39;;;;;;;7.45;3.97;;;11.20;61.90;;;;;;5092977;28;20044;-77
2022/04/29 02:17:06;;;;;;;6.50;4.07;;;11.10;62.10;;;;;;5092489;28;20086;-76
2022/04/29 02:19:33;;;;;;;5.93;3.88;;;11.10;62.30;;;;;;5093180;28;20081;-74
2022/04/29 02:22:00;;;;;;;7.80;3.80;;;11.00;62.40;;;;;;5092520;28;20461;-75
2022/04/29 02:24:26;;;;;;;5.40;3.70;;;11.00;62.70;;;;;;5092751;28;20473;-77
2022/04/29 02:26:53;;;;;;;7.38;4.15;;;11.00;63.00;;;;;;5092958;28;20052;-76
2022/04/29 02:29:19;;;;;;;7.90;4.10;;;10.90;63.20;;;;;;5092245;28;20047;-75
2022/04/29 02:31:45;;;;;;;7.45;4.32;;;10.90;63.00;;;;;;5092646;28;20024;-76
2022/04/29 02:34:11;;;;;;;8.90;4.05;;;10.90;63.20;;;;;;5091868;28;20358;-76
2022/04/29 02:36:37;;;;;;;5.18;3.55;;;10.90;63.30;;;;;;5092820;28;20028;-76
2022/04/29 02:39:03;;;;;;;4.32;3.70;;;10.90;63.30;;;;;;5092123;28;20469;-76
2022/04/29 02:41:29;;;;;;;6.53;3.88;;;10.90;63.40;;;;;;5092754;28;20058;-77
2022/04/29 02:43:55;;;;;;;6.95;4.40;;;10.80;63.50;;;;;;5092551;28;20028;-76
2022/04/29 02:46:21;;;;;;;5.60;4.10;;;10.80;63.80;;;;;;5091454;28;20027;-75
2022/04/29 02:48:48;;;;;;;7.82;4.35;;;10.80;63.80;;;;;;5092589;28;20365;-76
2022/04/29 02:51:15;;;;;;;6.53;4.10;;;10.80;63.90;;;;;;5091908;28;20035;-77
2022/04/29 02:53:41;;;;;;;5.82;3.60;;;10.80;63.70;;;;;;5107395;28;20033;-76
2022/04/29 02:56:06;;;;;;;7.47;4.10;;;10.80;64.10;;;;;;5091862;28;20058;-73
2022/04/29 02:58:32;;;;;;;6.72;4.07;;;10.70;64.30;;;;;;5092129;28;20035;-77
2022/04/29 03:00:58;;;;;;;6.30;4.20;;;10.70;64.50;;;;;;5091033;28;20024;-77
2022/04/29 03:03:24;;;;;;;9.80;4.38;;;10.70;64.70;;;;;;5092395;28;20115;-77
2022/04/29 03:05:50;;;;;;;7.85;4.00;;;10.70;64.90;;;;;;5092380;28;20094;-76
2022/04/29 03:08:15;;;;;;;6.40;4.32;;;10.60;65.10;;;;;;5091435;28;20020;-76
2022/04/29 03:10:41;;;;;;;6.78;4.13;;;10.60;65.30;;;;;;5091934;28;20058;-76
2022/04/29 03:13:06;;;;;;;5.30;4.03;;;10.50;65.40;;;;;;5091683;28;20469;-76
2022/04/29 03:15:33;;;;;;;9.00;4.50;;;10.50;65.70;;;;;;5092423;28;20123;-76
2022/04/29 03:20:43;;;;;;;8.98;4.45;;;10.50;66.10;;;;;;5091982;28;20085;-76
2022/04/29 03:23:10;;;;;;;6.38;4.55;;;10.40;66.50;;;;;;5107424;28;20040;-76
2022/04/29 03:25:36;;;;;;;10.70;4.38;;;10.40;66.60;;;;;;5092115;28;20028;-75
2022/04/29 03:28:02;;;;;;;7.80;4.72;;;10.30;66.70;;;;;;5091591;28;20024;-74
2022/04/29 03:30:28;;;;;;;6.53;4.55;;;10.30;66.90;;;;;;5092196;28;20024;-75
2022/04/29 03:32:55;;;;;;;5.43;4.43;;;10.30;67.20;;;;;;5092185;28;20035;-76
2022/04/29 03:35:22;;;;;;;7.88;4.90;;;10.20;67.30;;;;;;5091549;28;20043;-75
2022/04/29 03:37:54;;;;;;;12.32;5.38;;;10.20;67.50;;;;;;5091986;28;20020;-76
2022/04/29 03:40:23;;;;;;;6.72;4.25;;;10.20;67.80;;;;;;5091346;28;20069;-75
2022/04/29 03:42:54;;;;;;;10.80;4.65;;;10.20;68.60;;;;;;5091687;28;20035;-75
2022/04/29 03:45:21;;;;;;;7.50;4.93;;;10.20;68.30;;;;;;5091202;28;20403;-75
2022/04/29 03:47:47;;;;;;;7.93;4.68;;;10.20;68.20;;;;;;5091959;28;20213;-76
2022/04/29 03:50:13;;;;;;;9.23;4.57;;;10.10;68.60;;;;;;5090956;28;20548;-75
2022/04/29 03:52:46;;;;;;;7.13;4.80;;;10.10;68.60;;;;;;5090571;28;20434;-75
2022/04/29 03:55:12;;;;;;;5.50;4.50;;;10.10;68.90;;;;;;5106905;28;20024;-75
2022/04/29 03:57:38;;;;;;;6.88;4.22;;;10.10;69.00;;;;;;5091758;28;20024;-75
2022/04/29 04:00:04;;;;;;;6.38;4.57;;;10.10;69.20;;;;;;5090896;28;20411;-73
2022/04/29 04:02:30;;;;;;;7.07;4.28;;;10.10;69.40;;;;;;5089446;28;20062;-76
2022/04/29 04:04:55;;;;;;;11.45;5.13;;;10.10;69.60;;;;;;5093404;28;20024;-76
2022/04/29 04:07:22;;;;;;;8.55;5.03;;;10.10;69.60;;;;;;5095103;28;20423;-76
2022/04/29 04:09:47;;;;;;;8.32;4.47;;;10.10;69.60;;;;;;5095617;28;20134;-76
2022/04/29 04:12:13;;;;;;;5.50;4.43;;;10.10;70.10;;;;;;5094977;28;20500;-74
2022/04/29 04:14:39;;;;;;;6.70;4.75;;;10.10;69.80;;;;;;5095464;28;20119;-75
2022/04/29 04:17:05;;;;;;;11.95;4.80;;;10.10;70.00;;;;;;5095025;28;20051;-73
2022/04/29 04:19:30;;;;;;;8.75;4.95;;;10.10;70.20;;;;;;5095112;28;20423;-74
2022/04/29 04:21:56;;;;;;;9.02;5.10;;;10.00;70.30;;;;;;5094071;28;20028;-75
2022/04/29 04:24:22;;;;;;;7.78;4.90;;;10.00;70.40;;;;;;5093967;28;20024;-75
2022/04/29 04:26:47;;;;;;;7.18;4.05;;;10.00;70.70;;;;;;5097099;28;20043;-75
2022/04/29 04:29:13;;;;;;;6.40;5.40;;;10.10;70.80;;;;;;5103312;28;20465;-75
2022/04/29 04:31:39;;;;;;;5.25;4.30;;;10.10;71.00;;;;;;5101005;28;20028;-75
2022/04/29 04:34:49;;;;;;;7.28;4.20;;;10.10;71.00;;;;;;5094598;28;20035;-75
2022/04/29 04:36:53;;;;;;;5.72;4.43;;;10.10;70.90;;;;;;5086259;28;20031;-75
2022/04/29 04:39:19;;;;;;;7.85;4.43;;;10.20;71.00;;;;;;5093739;28;20381;-75
2022/04/29 04:41:45;;;;;;;7.97;4.28;;;10.30;70.40;;;;;;5093433;28;20114;-75
2022/04/29 04:44:11;;;;;;;6.53;4.47;;;10.40;70.10;;;;;;5094301;28;20063;-76
2022/04/29 04:46:37;;;;;;;6.50;4.78;;;10.50;69.80;;;;;;5095128;28;20027;-76
2022/04/29 04:49:02;;;;;;;7.70;4.68;;;10.70;69.50;;;;;;5094960;28;20059;-76
2022/04/29 04:51:28;;;;;;;8.35;4.78;;;10.80;69.50;;;;;;5094526;28;20511;-77
2022/04/29 04:53:54;;;;;;;6.10;4.80;;;10.90;68.60;;;;;;5094932;28;20024;-76
2022/04/29 04:56:19;;;;;;;8.60;4.88;;;11.00;68.10;;;;;;5093650;28;20043;-76
2022/04/29 04:58:45;;;;;;;7.82;4.57;;;11.10;67.40;;;;;;5094140;28;20028;-75
2022/04/29 05:01:11;;;;;;;8.68;4.90;;;11.20;66.80;;;;;;5092347;28;20070;-75
2022/04/29 05:03:37;;;;;;;7.03;4.70;;;11.30;66.60;;;;;;5094209;28;20445;-75
2022/04/29 05:06:03;;;;;;;8.80;5.22;;;11.30;66.30;;;;;;5094350;28;20111;-75
2022/04/29 05:08:28;;;;;;;9.80;4.72;;;11.40;66.10;;;;;;5093449;28;20123;-75
2022/04/29 05:10:54;;;;;;;6.82;5.10;;;11.50;65.90;;;;;;5094026;28;20051;-75
2022/04/29 05:13:19;;;;;;;8.18;4.60;;;11.50;65.80;;;;;;5093676;28;20517;-75
2022/04/29 05:15:45;;;;;;;13.80;5.30;;;11.60;65.70;;;;;;5093385;28;20089;-75
2022/04/29 05:18:11;;;;;;;8.70;4.50;;;11.60;65.40;;;;;;5093769;28;20020;-75
2022/04/29 05:20:36;;;;;;;8.30;5.03;;;11.70;65.10;;;;;;5093805;28;20027;-77
2022/04/29 05:23:02;;;;;;;10.45;5.20;;;11.80;64.70;;;;;;5094235;28;20031;-76
2022/04/29 05:25:28;;;;;;;10.88;4.50;;;11.90;64.30;;;;;;5093754;28;20680;-74
2022/04/29 05:27:53;;;;;;;8.15;4.72;;;12.10;64.10;;;;;;5094072;28;20126;-75
2022/04/29 05:30:19;;;;;;;7.78;5.30;;;12.20;63.70;;;;;;5093889;28;20032;-75
2022/04/29 05:32:46;;;;;;;9.02;4.82;;;12.30;63.20;;;;;;5094163;28;20016;-77
2022/04/29 05:35:13;;;;;;;10.25;4.75;;;12.60;62.70;;;;;;5093357;28;20107;-75
2022/04/29 05:37:40;;;;;;;10.10;4.30;;;12.80;62.00;;;;;;5094258;28;20115;-75
2022/04/29 05:42:53;;;;;;;10.05;4.55;;;13.30;60.10;;;;;;5093973;28;20038;-75
2022/04/29 05:45:19;;;;;;;10.02;5.20;;;13.60;58.80;;;;;;5093185;28;20059;-75
2022/04/29 05:47:45;;;;;;;14.73;5.07;;;13.90;57.80;;;;;;5093808;28;20105;-76
2022/04/29 05:50:11;;;;;;;14.07;4.80;;;14.20;56.80;;;;;;5093301;28;20449;-75
2022/04/29 05:52:36;;;;;;;10.35;4.18;;;14.60;55.10;;;;;;5093661;28;20024;-75
2022/04/29 05:55:02;;;;;;;6.00;4.53;;;15.30;54.70;;;;;;5093492;28;20050;-75
2022/04/29 05:57:27;;;;;;;12.13;4.57;;;16.40;53.10;;;;;;5092995;28;20353;-75
2022/04/29 05:59:53;;;;;;;7.20;4.30;;;17.50;49.60;;;;;;5093478;28;20024;-76
2022/04/29 06:02:21;;;;;;;7.22;4.30;;;18.40;46.60;;;;;;5092886;28;20386;-75
2022/04/29 06:05:05;;;;;;;8.52;4.57;;;19.20;44.90;;;;;;5093382;28;20024;-76
2022/04/29 06:07:31;;;;;;;6.22;4.57;;;20.10;42.70;;;;;;5092534;28;20024;-76
2022/04/29 06:09:57;;;;;;;7.90;4.45;;;20.50;41.30;;;;;;5093138;28;20034;-78
2022/04/29 06:12:22;;;;;;;10.60;4.90;;;20.40;40.70;;;;;;5092874;28;20372;-75
2022/04/29 06:14:48;;;;;;;11.30;4.93;;;20.00;40.40;;;;;;5092844;28;20476;-76
2022/04/29 06:17:14;;;;;;;10.82;4.85;;;19.50;41.20;;;;;;5092408;28;20111;-74
2022/04/29 06:19:40;;;;;;;13.93;4.68;;;19.40;41.80;;;;;;5092854;28;20024;-76
2022/04/29 06:22:06;;;;;;;7.50;4.70;;;19.40;41.60;;;;;;5093136;28;20097;-77
2022/04/29 06:24:32;;;;;;;10.05;4.60;;;19.50;41.90;;;;;;5092441;28;20024;-76
2022/04/29 06:27:01;;;;;;;5.60;4.05;;;19.70;41.10;;;;;;5092186;28;20044;-75
2022/04/29 06:29:26;;;;;;;11.05;4.93;;;19.70;41.20;;;;;;5093211;28;20020;-75
2022/04/29 06:31:52;;;;;;;12.25;4.47;;;19.70;41.20;;;;;;5092927;28;20028;-76
2022/04/29 06:34:18;;;;;;;9.10;4.70;;;19.80;41.10;;;;;;5091754;28;20030;-75
2022/04/29 06:36:43;;;;;;;7.38;4.30;;;19.90;40.90;;;;;;5092585;28;20089;-76
2022/04/29 06:39:09;;;;;;;7.25;4.97;;;20.10;41.00;;;;;;5092655;28;20093;-76
2022/04/29 06:41:36;;;;;;;10.02;4.97;;;20.40;40.60;;;;;;5091710;28;20718;-75
2022/04/29 06:44:02;;;;;;;8.55;4.85;;;20.60;40.10;;;;;;5092380;28;20020;-75
2022/04/29 06:46:28;;;;;;;7.93;4.93;;;21.20;39.80;;;;;;5091598;28;20072;-76
2022/04/29 06:48:55;;;;;;;12.30;5.63;;;22.10;38.50;;;;;;5091961;28;20481;-76
2022/04/29 06:51:21;;;;;;;12.90;5.15;;;23.00;36.80;;;;;;5091523;28;20027;-75
2022/04/29 06:53:47;;;;;;;8.52;5.35;;;23.80;35.90;;;;;;5092474;28;20032;-74
2022/04/29 06:56:13;;;;;;;9.75;6.20;;;24.60;33.80;;;;;;5092323;28;20024;-76
2022/04/29 06:58:39;;;;;;;8.43;5.68;;;24.50;32.30;;;;;;5090291;28;20032;-74
2022/04/29 07:01:04;;;;;;;7.80;4.85;;;23.70;32.10;;;;;;5092079;28;20143;-76
2022/04/29 07:03:30;;;;;;;7.63;5.60;;;23.40;33.20;;;;;;5091501;28;20067;-76
2022/04/29 07:05:59;;;;;;;14.43;5.40;;;23.10;32.60;;;;;;5091986;28;20024;-76
2022/04/29 07:08:24;;;;;;;8.65;4.60;;;23.20;33.70;;;;;;5091502;28;20024;-75
2022/04/29 07:10:50;;;;;;;10.63;5.10;;;23.50;32.90;;;;;;5092106;28;20030;-75
2022/04/29 07:13:16;;;;;;;11.18;5.15;;;24.70;32.50;;;;;;5092072;28;20405;-75
2022/04/29 07:15:43;;;;;;;9.27;5.68;;;26.40;31.30;;;;;;5091208;28;20074;-76
2022/04/29 07:18:12;;;;;;;8.02;5.05;;;28.20;29.40;;;;;;5092006;28;20040;-75
2022/04/29 07:20:38;;;;;;;8.20;5.32;;;29.60;28.20;;;;;;5090126;28;20040;-75
2022/04/29 07:23:03;;;;;;;13.15;5.38;;;30.30;27.00;;;;;;5092077;28;20034;-75
2022/04/29 07:25:29;;;;;;;10.13;5.22;;;30.20;26.60;;;;;;5091387;28;20112;-75
2022/04/29 07:27:55;;;;;;;7.50;5.30;;;31.10;26.60;;;;;;5092014;28;20055;-76
2022/04/29 07:30:20;;;;;;;8.13;5.30;;;31.90;25.90;;;;;;5091354;28;20024;-75
2022/04/29 07:32:46;;;;;;;9.88;5.72;;;32.30;25.30;;;;;;5091733;28;20031;-75
2022/04/29 07:43:25;;;;;;;9.10;6.32;;;32.90;24.40;;;;;;5094868;28;20070;-75
2022/04/29 07:45:51;;;;;;;9.32;5.40;;;32.70;24.60;;;;;;5095336;28;20131;-74
2022/04/29 07:48:18;;;;;;;9.13;5.30;;;32.70;24.50;;;;;;5095653;28;20028;-75
2022/04/29 07:50:43;;;;;;;7.22;5.28;;;32.90;24.40;;;;;;5095077;28;20111;-75
2022/04/29 07:53:09;;;;;;;7.30;5.28;;;33.00;24.40;;;;;;5095590;28;20140;-76
2022/04/29 07:55:35;;;;;;;8.38;5.45;;;33.50;25.40;;;;;;5094729;28;20024;-75
2022/04/29 07:58:03;;;;;;;9.38;5.60;;;33.70;24.40;;;;;;5095550;28;20071;-76
2022/04/29 08:00:31;;;;;;;8.35;5.53;;;33.80;24.10;;;;;;5094905;28;20126;-75
2022/04/29 08:02:58;;;;;;;6.38;5.13;;;33.50;23.60;;;;;;5095386;28;20047;-75
2022/04/29 08:05:24;;;;;;;9.77;4.82;;;33.40;24.40;;;;;;5094987;28;20020;-74
2022/04/29 08:07:50;;;;;;;9.02;5.28;;;33.80;24.60;;;;;;5095609;28;20051;-75
2022/04/29 08:10:16;;;;;;;7.13;4.68;;;33.50;24.70;;;;;;5095370;28;20338;-75
2022/04/29 08:12:41;;;;;;;8.43;4.60;;;33.60;24.20;;;;;;5094972;28;20024;-75
2022/04/29 08:15:09;;;;;;;8.20;5.00;;;33.50;24.30;;;;;;5095345;28;20040;-75
2022/04/29 08:17:37;;;;;;;9.07;5.10;;;33.30;24.30;;;;;;5094605;28;20119;-74
2022/04/29 08:20:03;;;;;;;7.07;4.30;;;32.80;24.60;;;;;;5094996;28;20081;-75
2022/04/29 08:22:29;;;;;;;8.63;5.10;;;32.70;24.90;;;;;;5094119;28;20042;-74
2022/04/29 08:24:55;;;;;;;7.25;5.00;;;32.10;25.00;;;;;;5094903;28;20413;-76
2022/04/29 08:27:21;;;;;;;10.02;4.72;;;31.40;25.30;;;;;;5095084;28;20121;-76
2022/04/29 08:29:47;;;;;;;8.82;4.28;;;31.40;25.80;;;;;;5094116;28;20154;-75
2022/04/29 08:32:13;;;;;;;7.82;4.10;;;31.30;25.80;;;;;;5094958;28;20060;-75
2022/04/29 08:34:39;;;;;;;8.77;4.63;;;30.60;25.20;;;;;;5094388;28;20111;-75
2022/04/29 08:37:05;;;;;;;8.77;5.25;;;30.20;25.50;;;;;;5094710;28;20443;-76
2022/04/29 08:39:30;;;;;;;7.60;5.65;;;29.60;25.40;;;;;;5093978;28;20066;-75
2022/04/29 08:42:01;;;;;;;7.53;5.03;;;28.70;25.80;;;;;;5094742;28;20036;-75
2022/04/29 08:44:30;;;;;;;7.47;4.95;;;28.20;26.60;;;;;;5094397;28;20024;-75
2022/04/29 08:47:00;;;;;;;10.18;4.97;;;27.70;27.10;;;;;;5095110;28;20024;-75
2022/04/29 08:49:26;;;;;;;7.90;4.93;;;27.20;27.00;;;;;;5093815;28;20118;-73
2022/04/29 08:51:52;;;;;;;7.60;4.78;;;26.90;27.60;;;;;;5093968;28;20036;-75
2022/04/29 08:59:57;;;;;;;8.18;4.80;;;25.90;27.50;;;;;;5094235;28;20122;-76
2022/04/29 09:02:25;;;;;;;7.93;4.03;;;25.50;27.70;;;;;;5094215;28;20020;-76
2022/04/29 09:04:53;;;;;;;8.38;4.45;;;25.00;28.00;;;;;;5094416;28;20023;-76
2022/04/29 09:07:34;;;;;;;7.30;4.63;;;24.70;28.30;;;;;;5094551;28;20028;-75
2022/04/29 09:10:06;;;;;;;6.85;4.32;;;24.50;28.60;;;;;;5093405;28;20024;-75
2022/04/29 09:12:31;;;;;;;4.30;3.33;;;24.30;28.10;;;;;;5093684;28;20028;-73
2022/04/29 09:15:11;;;;;;;6.65;3.92;;;24.10;28.20;;;;;;5093714;28;20046;-75
2022/04/29 09:17:39;;;;;;;4.60;3.50;;;23.90;28.40;;;;;;5093218;28;20058;-76
2022/04/29 09:20:13;;;;;;;7.43;3.55;;;23.70;28.80;;;;;;5094063;28;20028;-76
2022/04/29 09:22:40;;;;;;;5.35;3.45;;;23.50;29.10;;;;;;5093595;28;20060;-74
2022/04/29 09:25:06;;;;;;;8.20;3.80;;;23.40;29.20;;;;;;5093774;28;20028;-76
2022/04/29 09:27:56;;;;;;;6.85;3.58;;;23.20;29.80;;;;;;5093423;28;20024;-75
2022/04/29 09:30:37;;;;;;;6.82;4.25;;;23.10;29.50;;;;;;5094131;28;20376;-75
2022/04/29 09:33:05;;;;;;;7.57;4.13;;;23.00;29.90;;;;;;5093559;28;20475;-76
2022/04/29 09:35:37;;;;;;;6.05;3.45;;;22.80;30.00;;;;;;5092912;28;20028;-75
2022/04/29 09:40:48;;;;;;;5.95;4.20;;;22.60;30.20;;;;;;5093188;28;20061;-76
2022/04/29 09:43:14;;;;;;;5.72;4.10;;;22.40;30.00;;;;;;5093769;28;20020;-75
2022/04/29 09:45:40;;;;;;;6.78;4.50;;;22.30;30.80;;;;;;5092811;28;20047;-75
2022/04/29 09:48:09;;;;;;;6.72;4.50;;;22.30;31.70;;;;;;5093468;28;20028;-76
2022/04/29 09:50:52;;;;;;;9.18;4.75;;;22.30;32.10;;;;;;5092676;28;20024;-74
2022/04/29 09:53:20;;;;;;;7.47;4.45;;;22.20;32.20;;;;;;5093275;28;20028;-75
2022/04/29 09:56:12;;;;;;;6.93;4.40;;;22.20;32.00;;;;;;5092755;28;20031;-75
2022/04/29 09:58:40;;;;;;;9.77;5.47;;;22.10;31.50;;;;;;5092640;28;20050;-74
2022/04/29 10:01:06;;;;;;;8.48;5.03;;;22.10;31.90;;;;;;5093019;28;20461;-76
2022/04/29 10:03:35;;;;;;;10.60;4.97;;;21.90;32.20;;;;;;5092602;28;20078;-76
2022/04/29 10:06:02;;;;;;;6.63;4.20;;;21.80;32.80;;;;;;5093399;28;20052;-76
2022/04/29 10:08:30;;;;;;;7.68;3.97;;;21.70;33.40;;;;;;5092846;28;20028;-76
2022/04/29 10:10:57;;;;;;;7.88;4.53;;;21.60;32.80;;;;;;5093118;28;20091;-75
2022/04/29 10:13:23;;;;;;;8.38;4.00;;;21.70;33.10;;;;;;5093000;28;20024;-76
2022/04/29 10:15:52;;;;;;;7.05;4.20;;;21.70;32.20;;;;;;5092533;28;20063;-75
2022/04/29 10:21:15;;;;;;;6.75;4.50;;;22.00;33.80;;;;;;5092727;28;20083;-75
2022/04/29 10:23:42;;;;;;;6.70;4.57;;;22.10;32.60;;;;;;5092388;28;20061;-75
2022/04/29 10:26:08;;;;;;;6.32;4.40;;;22.20;32.40;;;;;;5093172;28;20054;-75
2022/04/29 10:28:35;;;;;;;8.70;3.92;;;22.20;32.40;;;;;;5093581;28;20024;-75
2022/04/29 10:31:09;;;;;;;10.07;4.15;;;22.40;32.80;;;;;;5094732;28;20032;-75
2022/04/29 10:33:36;;;;;;;6.85;4.70;;;22.50;33.60;;;;;;5093445;28;20032;-74
2022/04/29 10:36:07;;;;;;;6.30;4.80;;;22.60;32.10;;;;;;5092656;28;20035;-75
2022/04/29 10:38:42;;;;;;;8.15;4.45;;;22.50;30.90;;;;;;5091963;28;20024;-74
2022/04/29 10:41:12;;;;;;;4.55;3.50;;;22.50;31.20;;;;;;5092578;28;20127;-75
2022/04/29 10:43:39;;;;;;;7.03;4.70;;;22.60;32.90;;;;;;5092053;28;20145;-75
2022/04/29 10:46:05;;;;;;;6.75;4.13;;;22.60;32.20;;;;;;5092249;28;20028;-75
2022/04/29 10:48:38;;;;;;;6.18;4.18;;;22.70;32.00;;;;;;5091855;28;20024;-75
2022/04/29 10:51:11;;;;;;;4.85;4.00;;;22.50;30.60;;;;;;5091894;28;20032;-75
2022/04/29 10:53:41;;;;;;;9.02;4.20;;;22.60;31.30;;;;;;5091525;28;20024;-74
2022/04/29 10:56:30;;;;;;;16.00;4.50;;;22.60;31.70;;;;;;5092406;28;20119;-76
2022/04/29 10:59:07;;;;;;;8.18;4.53;;;22.50;32.40;;;;;;5085742;28;20081;-76
2022/04/29 11:01:34;;;;;;;10.52;4.50;;;22.50;32.10;;;;;;5091470;28;20043;-74
2022/04/29 11:04:05;;;;;;;8.07;4.47;;;22.50;31.80;;;;;;5092177;28;20024;-75
2022/04/29 11:06:47;;;;;;;7.50;5.07;;;22.50;32.10;;;;;;5092083;28;20024;-74
2022/04/29 11:09:44;;;;;;;8.63;4.88;;;22.40;31.70;;;;;;5092314;28;20056;-76
2022/04/29 11:12:28;;;;;;;10.10;5.35;;;22.50;32.60;;;;;;5092181;28;20035;-76
2022/04/29 11:15:16;;;;;;;6.60;4.68;;;22.40;32.00;;;;;;5090493;28;20516;-76
2022/04/29 11:17:42;;;;;;;8.65;4.57;;;22.50;32.30;;;;;;5091307;28;20375;-75
2022/04/29 11:20:19;;;;;;;6.03;5.20;;;22.60;33.30;;;;;;5091615;28;20522;-76
2022/04/29 11:25:57;;;;;;;7.55;5.60;;;22.50;31.80;;;;;;5091438;28;20130;-76
2022/04/29 11:28:24;;;;;;;9.00;5.13;;;22.20;32.40;;;;;;5091865;28;20028;-76
2022/04/29 11:30:58;;;;;;;8.95;4.55;;;22.00;32.30;;;;;;5090999;28;20024;-76
2022/04/29 11:33:24;;;;;;;5.70;4.57;;;21.80;32.70;;;;;;5090794;28;20035;-76
2022/04/29 11:38:46;;;;;;;7.85;4.47;;;21.70;33.30;;;;;;5091337;28;20111;-75
2022/04/29 11:41:20;;;;;;;8.20;4.43;;;21.60;32.70;;;;;;5091647;28;20024;-76
2022/04/29 11:43:48;;;;;;;6.03;4.63;;;21.50;32.60;;;;;;5091224;28;20039;-76
2022/04/29 11:46:14;;;;;;;7.00;4.85;;;21.50;32.60;;;;;;5091522;28;20441;-76
2022/04/29 11:48:59;;;;;;;7.47;4.13;;;21.40;32.70;;;;;;5090908;28;20389;-76
2022/04/29 11:51:26;;;;;;;8.38;5.05;;;21.30;32.80;;;;;;5091685;28;20028;-76
2022/04/29 11:54:00;;;;;;;6.78;5.40;;;21.20;32.60;;;;;;5091100;28;20068;-75
2022/04/29 11:56:35;;;;;;;7.95;4.57;;;21.10;32.90;;;;;;5091887;28;20036;-76
2022/04/29 11:59:06;;;;;;;5.40;4.55;;;21.20;34.00;;;;;;5091141;28;20434;-76
2022/04/29 12:01:32;;;;;;;9.02;4.78;;;21.20;33.50;;;;;;5091510;28;20380;-76
2022/04/29 12:03:58;;;;;;;6.97;4.50;;;21.20;33.10;;;;;;5090800;28;20064;-76
2022/04/29 12:06:23;;;;;;;5.78;4.15;;;21.20;33.50;;;;;;5091365;28;20350;-76
2022/04/29 12:08:50;;;;;;;5.80;4.30;;;21.20;33.90;;;;;;5090702;28;20071;-76
2022/04/29 12:11:30;;;;;;;7.15;3.95;;;21.20;32.60;;;;;;5091493;28;20381;-77
2022/04/29 12:14:13;;;;;;;5.07;4.30;;;21.10;32.10;;;;;;5090510;28;20044;-76
2022/04/29 12:16:57;;;;;;;6.57;4.90;;;21.00;32.70;;;;;;5089815;28;20534;-73
2022/04/29 12:19:23;;;;;;;6.43;4.65;;;20.90;33.10;;;;;;5091329;28;20427;-75
2022/04/29 12:21:55;;;;;;;7.25;4.90;;;20.90;33.30;;;;;;5090635;28;20032;-76
2022/04/29 12:24:21;;;;;;;10.07;5.10;;;20.90;33.40;;;;;;5091090;28;20385;-76
2022/04/29 12:27:06;;;;;;;9.43;4.00;;;21.00;35.50;;;;;;5093642;28;20020;-75
2022/04/29 12:29:32;;;;;;;4.53;3.78;;;21.00;34.20;;;;;;5094684;28;20024;-76
2022/04/29 12:35:25;;;;;;;5.82;4.78;;;20.90;33.00;;;;;;5082230;28;20032;-77
2022/04/29 12:37:53;;;;;;;8.50;4.60;;;20.70;33.40;;;;;;5094344;28;20086;-76
2022/04/29 12:40:26;;;;;;;5.88;4.30;;;20.70;33.80;;;;;;5094766;28;20036;-76
2022/04/29 12:42:52;;;;;;;8.77;4.90;;;20.60;34.40;;;;;;5094307;28;20020;-75
2022/04/29 12:45:24;;;;;;;7.78;5.05;;;20.60;34.50;;;;;;5094918;28;20024;-77
2022/04/29 12:48:00;;;;;;;6.22;4.63;;;20.50;33.90;;;;;;5094363;28;20032;-77
2022/04/29 12:50:44;;;;;;;8.65;4.70;;;20.40;34.10;;;;;;5094431;28;20440;-76
2022/04/29 12:53:15;;;;;;;6.63;4.70;;;20.30;34.60;;;;;;5094365;28;20036;-76
2022/04/29 12:55:44;;;;;;;10.27;4.30;;;20.30;34.10;;;;;;5093574;28;20375;-75
2022/04/29 12:58:26;;;;;;;8.95;4.65;;;20.20;34.90;;;;;;5094283;28;20468;-76
2022/04/29 13:00:55;;;;;;;6.05;4.60;;;20.20;34.50;;;;;;5093763;28;20078;-76
2022/04/29 13:03:29;;;;;;;8.38;4.68;;;20.20;34.20;;;;;;5094014;28;20353;-77
2022/04/29 13:05:57;;;;;;;4.30;3.90;;;20.10;34.50;;;;;;5093569;28;20436;-76
2022/04/29 13:08:23;;;;;;;6.88;4.50;;;20.10;34.60;;;;;;5094030;28;20031;-76
2022/04/29 13:10:53;;;;;;;10.63;4.25;;;20.00;34.20;;;;;;5093428;28;20460;-77
2022/04/29 13:13:20;;;;;;;8.73;4.25;;;20.10;35.00;;;;;;5094196;28;20024;-76
2022/04/29 13:15:47;;;;;;;8.60;4.50;;;20.10;35.20;;;;;;5092120;28;20381;-75
2022/04/29 13:18:14;;;;;;;6.40;4.50;;;20.10;34.70;;;;;;5093664;28;20028;-77
2022/04/29 13:20:41;;;;;;;6.00;4.45;;;20.10;35.00;;;;;;5093545;28;20100;-77
2022/04/29 13:23:07;;;;;;;7.43;3.75;;;20.10;34.60;;;;;;5093888;28;20082;-77
2022/04/29 13:25:41;;;;;;;7.55;4.65;;;20.10;34.90;;;;;;5093982;28;20027;-77